sensor_id;sensor_type;location;lat;lon;timestamp;temperature;humidity
51739;DHT22;37815;52.692;6.226;2023-08-06T00:04:04;19.40;94.20
51739;DHT22;37815;52.692;6.226;2023-08-06T00:09:04;19.40;94.20
51739;DHT22;37815;52.692;6.226;2023-08-06T00:14:05;19.40;94.20
51739;DHT22;37815;52.692;6.226;2023-08-06T00:19:06;19.40;94.20
51739;DHT22;37815;52.692;6.226;2023-08-06T00:24:06;19.40;94.20
51739;DHT22;37815;52.692;6.226;2023-08-06T00:29:07;19.40;94.20
51739;DHT22;37815;52.692;6.226;2023-08-06T00:34:07;19.40;94.30
51739;DHT22;37815;52.692;6.226;2023-08-06T00:39:08;19.30;94.20
51739;DHT22;37815;52.692;6.226;2023-08-06T00:44:09;19.30;94.20
51739;DHT22;37815;52.692;6.226;2023-08-06T00:49:09;19.30;94.30
51739;DHT22;37815;52.692;6.226;2023-08-06T00:54:10;19.30;94.30
51739;DHT22;37815;52.692;6.226;2023-08-06T00:59:11;19.30;94.20
51739;DHT22;37815;52.692;6.226;2023-08-06T01:04:12;19.30;94.30
51739;DHT22;37815;52.692;6.226;2023-08-06T01:14:56;19.30;94.30
51739;DHT22;37815;52.692;6.226;2023-08-06T01:19:58;19.30;94.30
51739;DHT22;37815;52.692;6.226;2023-08-06T01:24:59;19.30;94.30
51739;DHT22;37815;52.692;6.226;2023-08-06T01:30:29;19.30;94.30
51739;DHT22;37815;52.692;6.226;2023-08-06T01:35:29;19.20;94.30
51739;DHT22;37815;52.692;6.226;2023-08-06T01:40:30;19.20;94.30
51739;DHT22;37815;52.692;6.226;2023-08-06T01:45:31;19.20;94.30
51739;DHT22;37815;52.692;6.226;2023-08-06T01:50:31;19.20;94.30
51739;DHT22;37815;52.692;6.226;2023-08-06T01:55:32;19.20;94.30
51739;DHT22;37815;52.692;6.226;2023-08-06T02:00:32;19.20;94.30
51739;DHT22;37815;52.692;6.226;2023-08-06T02:05:33;19.20;94.30
51739;DHT22;37815;52.692;6.226;2023-08-06T02:10:34;19.10;94.30
51739;DHT22;37815;52.692;6.226;2023-08-06T02:15:34;19.20;94.30
51739;DHT22;37815;52.692;6.226;2023-08-06T02:20:35;19.10;94.30
51739;DHT22;37815;52.692;6.226;2023-08-06T02:25:35;19.10;94.30
51739;DHT22;37815;52.692;6.226;2023-08-06T02:30:36;19.10;94.30
51739;DHT22;37815;52.692;6.226;2023-08-06T02:35:37;19.10;94.30
51739;DHT22;37815;52.692;6.226;2023-08-06T02:40:43;19.10;94.30
51739;DHT22;37815;52.692;6.226;2023-08-06T02:45:44;19.10;94.30
51739;DHT22;37815;52.692;6.226;2023-08-06T02:50:45;19.10;94.30
51739;DHT22;37815;52.692;6.226;2023-08-06T02:55:47;19.10;94.30
51739;DHT22;37815;52.692;6.226;2023-08-06T03:01:00;19.00;94.30
51739;DHT22;37815;52.692;6.226;2023-08-06T03:06:03;19.00;94.30
51739;DHT22;37815;52.692;6.226;2023-08-06T03:11:03;19.00;94.30
51739;DHT22;37815;52.692;6.226;2023-08-06T03:16:04;19.00;94.30
51739;DHT22;37815;52.692;6.226;2023-08-06T03:21:05;19.00;94.30
51739;DHT22;37815;52.692;6.226;2023-08-06T03:26:05;19.00;94.40
51739;DHT22;37815;52.692;6.226;2023-08-06T03:31:06;19.00;94.40
51739;DHT22;37815;52.692;6.226;2023-08-06T03:36:07;19.00;94.40
51739;DHT22;37815;52.692;6.226;2023-08-06T03:41:07;19.00;94.40
51739;DHT22;37815;52.692;6.226;2023-08-06T03:46:08;19.10;94.40
51739;DHT22;37815;52.692;6.226;2023-08-06T03:51:08;18.90;94.40
51739;DHT22;37815;52.692;6.226;2023-08-06T03:56:09;19.00;94.40
51739;DHT22;37815;52.692;6.226;2023-08-06T04:01:10;19.00;94.40
51739;DHT22;37815;52.692;6.226;2023-08-06T04:06:10;19.00;94.40
51739;DHT22;37815;52.692;6.226;2023-08-06T04:11:11;18.90;94.40
51739;DHT22;37815;52.692;6.226;2023-08-06T04:16:13;18.90;94.40
51739;DHT22;37815;52.692;6.226;2023-08-06T04:21:15;18.90;94.40
51739;DHT22;37815;52.692;6.226;2023-08-06T04:26:15;18.90;94.40
51739;DHT22;37815;52.692;6.226;2023-08-06T04:31:16;18.90;94.40
51739;DHT22;37815;52.692;6.226;2023-08-06T04:36:17;19.00;94.50
51739;DHT22;37815;52.692;6.226;2023-08-06T04:41:17;18.90;94.40
51739;DHT22;37815;52.692;6.226;2023-08-06T04:46:18;18.90;94.50
51739;DHT22;37815;52.692;6.226;2023-08-06T04:51:19;18.90;94.40
51739;DHT22;37815;52.692;6.226;2023-08-06T04:56:19;18.90;94.50
51739;DHT22;37815;52.692;6.226;2023-08-06T05:01:20;18.90;94.50
51739;DHT22;37815;52.692;6.226;2023-08-06T05:06:21;18.90;94.50
51739;DHT22;37815;52.692;6.226;2023-08-06T05:11:22;18.90;94.50
51739;DHT22;37815;52.692;6.226;2023-08-06T05:16:23;18.90;94.50
51739;DHT22;37815;52.692;6.226;2023-08-06T05:21:24;18.90;94.50
51739;DHT22;37815;52.692;6.226;2023-08-06T05:26:24;18.90;94.50
51739;DHT22;37815;52.692;6.226;2023-08-06T05:31:25;18.90;94.50
51739;DHT22;37815;52.692;6.226;2023-08-06T05:36:26;18.90;94.50
51739;DHT22;37815;52.692;6.226;2023-08-06T05:41:26;18.90;94.60
51739;DHT22;37815;52.692;6.226;2023-08-06T05:46:27;18.90;94.60
51739;DHT22;37815;52.692;6.226;2023-08-06T05:51:27;18.90;94.60
51739;DHT22;37815;52.692;6.226;2023-08-06T05:56:28;18.90;94.50
51739;DHT22;37815;52.692;6.226;2023-08-06T06:01:29;18.90;94.60
51739;DHT22;37815;52.692;6.226;2023-08-06T06:06:29;18.90;94.60
51739;DHT22;37815;52.692;6.226;2023-08-06T06:11:30;18.90;94.60
51739;DHT22;37815;52.692;6.226;2023-08-06T06:16:31;18.90;94.60
51739;DHT22;37815;52.692;6.226;2023-08-06T06:21:31;18.90;94.60
51739;DHT22;37815;52.692;6.226;2023-08-06T06:26:32;18.90;94.60
51739;DHT22;37815;52.692;6.226;2023-08-06T06:31:33;18.90;94.60
51739;DHT22;37815;52.692;6.226;2023-08-06T06:36:33;18.90;94.60
51739;DHT22;37815;52.692;6.226;2023-08-06T06:41:34;18.90;94.60
51739;DHT22;37815;52.692;6.226;2023-08-06T06:46:34;18.90;94.60
51739;DHT22;37815;52.692;6.226;2023-08-06T06:51:35;18.90;94.60
51739;DHT22;37815;52.692;6.226;2023-08-06T06:56:36;18.90;94.70
51739;DHT22;37815;52.692;6.226;2023-08-06T07:01:36;18.90;94.60
51739;DHT22;37815;52.692;6.226;2023-08-06T07:06:37;18.90;94.60
51739;DHT22;37815;52.692;6.226;2023-08-06T07:11:37;18.90;94.70
51739;DHT22;37815;52.692;6.226;2023-08-06T07:16:38;18.90;94.60
51739;DHT22;37815;52.692;6.226;2023-08-06T07:21:39;18.90;94.60
51739;DHT22;37815;52.692;6.226;2023-08-06T07:26:39;18.90;94.60
51739;DHT22;37815;52.692;6.226;2023-08-06T07:31:40;20.00;94.80
51739;DHT22;37815;52.692;6.226;2023-08-06T07:36:44;18.90;94.60
51739;DHT22;37815;52.692;6.226;2023-08-06T07:41:45;18.90;94.60
51739;DHT22;37815;52.692;6.226;2023-08-06T07:46:46;19.00;94.60
51739;DHT22;37815;52.692;6.226;2023-08-06T07:51:46;19.00;94.60
51739;DHT22;37815;52.692;6.226;2023-08-06T07:56:47;19.00;94.60
51739;DHT22;37815;52.692;6.226;2023-08-06T08:01:48;18.90;94.60
51739;DHT22;37815;52.692;6.226;2023-08-06T08:06:48;19.00;94.60
51739;DHT22;37815;52.692;6.226;2023-08-06T08:11:49;19.00;94.60
51739;DHT22;37815;52.692;6.226;2023-08-06T08:16:50;19.00;94.60
51739;DHT22;37815;52.692;6.226;2023-08-06T08:21:51;19.10;94.60
51739;DHT22;37815;52.692;6.226;2023-08-06T08:26:52;19.10;94.60
51739;DHT22;37815;52.692;6.226;2023-08-06T08:31:53;19.10;94.50
51739;DHT22;37815;52.692;6.226;2023-08-06T08:36:53;19.10;94.50
51739;DHT22;37815;52.692;6.226;2023-08-06T08:41:54;19.10;94.40
51739;DHT22;37815;52.692;6.226;2023-08-06T08:46:55;19.10;94.40
51739;DHT22;37815;52.692;6.226;2023-08-06T08:51:56;19.20;94.40
51739;DHT22;37815;52.692;6.226;2023-08-06T08:56:57;19.20;94.60
51739;DHT22;37815;52.692;6.226;2023-08-06T09:02:00;19.20;94.60
51739;DHT22;37815;52.692;6.226;2023-08-06T09:07:02;19.20;94.50
51739;DHT22;37815;52.692;6.226;2023-08-06T09:12:10;19.30;94.40
51739;DHT22;37815;52.692;6.226;2023-08-06T09:17:12;19.30;94.40
51739;DHT22;37815;52.692;6.226;2023-08-06T09:22:13;19.30;94.30
51739;DHT22;37815;52.692;6.226;2023-08-06T09:27:14;19.30;94.30
51739;DHT22;37815;52.692;6.226;2023-08-06T09:32:15;19.40;94.30
51739;DHT22;37815;52.692;6.226;2023-08-06T09:37:16;19.40;94.30
51739;DHT22;37815;52.692;6.226;2023-08-06T09:42:19;19.40;94.20
51739;DHT22;37815;52.692;6.226;2023-08-06T09:47:19;19.50;94.20
51739;DHT22;37815;52.692;6.226;2023-08-06T09:52:23;19.50;94.20
51739;DHT22;37815;52.692;6.226;2023-08-06T09:57:25;19.50;94.30
51739;DHT22;37815;52.692;6.226;2023-08-06T10:02:26;19.60;94.30
51739;DHT22;37815;52.692;6.226;2023-08-06T10:07:29;19.60;94.20
51739;DHT22;37815;52.692;6.226;2023-08-06T10:12:34;19.60;94.60
51739;DHT22;37815;52.692;6.226;2023-08-06T10:17:37;19.60;94.40
51739;DHT22;37815;52.692;6.226;2023-08-06T10:22:43;19.60;94.50
51739;DHT22;37815;52.692;6.226;2023-08-06T10:32:53;19.70;94.30
51739;DHT22;37815;52.692;6.226;2023-08-06T10:37:54;19.80;94.40
51739;DHT22;37815;52.692;6.226;2023-08-06T10:43:01;19.80;94.30
51739;DHT22;37815;52.692;6.226;2023-08-06T10:48:02;19.80;94.40
51739;DHT22;37815;52.692;6.226;2023-08-06T10:53:04;19.80;94.40
51739;DHT22;37815;52.692;6.226;2023-08-06T10:58:06;19.90;94.40
51739;DHT22;37815;52.692;6.226;2023-08-06T11:03:06;19.90;94.30
51739;DHT22;37815;52.692;6.226;2023-08-06T11:08:07;20.00;94.30
51739;DHT22;37815;52.692;6.226;2023-08-06T11:13:08;20.10;94.20
51739;DHT22;37815;52.692;6.226;2023-08-06T11:18:09;20.10;94.30
51739;DHT22;37815;52.692;6.226;2023-08-06T11:23:10;20.10;94.40
51739;DHT22;37815;52.692;6.226;2023-08-06T11:28:11;20.10;94.50
51739;DHT22;37815;52.692;6.226;2023-08-06T11:33:12;20.20;94.60
51739;DHT22;37815;52.692;6.226;2023-08-06T11:38:13;20.20;94.60
51739;DHT22;37815;52.692;6.226;2023-08-06T11:43:14;20.30;94.50
51739;DHT22;37815;52.692;6.226;2023-08-06T11:48:15;20.30;94.40
51739;DHT22;37815;52.692;6.226;2023-08-06T11:53:18;20.40;94.30
51739;DHT22;37815;52.692;6.226;2023-08-06T11:58:19;20.40;94.30
51739;DHT22;37815;52.692;6.226;2023-08-06T12:03:19;20.40;94.20
51739;DHT22;37815;52.692;6.226;2023-08-06T12:08:21;20.50;94.60
51739;DHT22;37815;52.692;6.226;2023-08-06T12:13:26;20.60;95.30
51739;DHT22;37815;52.692;6.226;2023-08-06T12:18:29;20.80;95.10
51739;DHT22;37815;52.692;6.226;2023-08-06T12:23:30;20.80;94.70
51739;DHT22;37815;52.692;6.226;2023-08-06T12:28:33;20.70;94.70
51739;DHT22;37815;52.692;6.226;2023-08-06T12:33:34;20.70;94.40
51739;DHT22;37815;52.692;6.226;2023-08-06T12:38:35;20.50;94.50
51739;DHT22;37815;52.692;6.226;2023-08-06T12:43:35;20.30;94.70
51739;DHT22;37815;52.692;6.226;2023-08-06T12:48:36;20.20;94.60
51739;DHT22;37815;52.692;6.226;2023-08-06T12:53:37;20.00;94.50
51739;DHT22;37815;52.692;6.226;2023-08-06T12:58:37;20.00;95.50
51739;DHT22;37815;52.692;6.226;2023-08-06T13:03:40;20.00;96.40
51739;DHT22;37815;52.692;6.226;2023-08-06T13:08:40;20.00;96.80
51739;DHT22;37815;52.692;6.226;2023-08-06T13:13:41;20.00;97.10
51739;DHT22;37815;52.692;6.226;2023-08-06T13:18:42;20.10;97.20
51739;DHT22;37815;52.692;6.226;2023-08-06T13:23:42;20.10;97.20
51739;DHT22;37815;52.692;6.226;2023-08-06T13:28:43;20.20;97.10
51739;DHT22;37815;52.692;6.226;2023-08-06T13:33:45;20.20;96.80
51739;DHT22;37815;52.692;6.226;2023-08-06T13:38:46;20.20;97.00
51739;DHT22;37815;52.692;6.226;2023-08-06T13:43:47;20.20;97.50
51739;DHT22;37815;52.692;6.226;2023-08-06T13:48:48;20.20;97.30
51739;DHT22;37815;52.692;6.226;2023-08-06T13:53:51;20.20;97.30
51739;DHT22;37815;52.692;6.226;2023-08-06T13:58:52;20.20;97.20
51739;DHT22;37815;52.692;6.226;2023-08-06T14:03:53;20.20;97.10
51739;DHT22;37815;52.692;6.226;2023-08-06T14:08:54;20.20;97.20
51739;DHT22;37815;52.692;6.226;2023-08-06T14:13:54;20.20;97.30
51739;DHT22;37815;52.692;6.226;2023-08-06T14:18:55;20.20;97.30
51739;DHT22;37815;52.692;6.226;2023-08-06T14:23:55;20.20;97.60
51739;DHT22;37815;52.692;6.226;2023-08-06T14:28:56;20.10;97.50
51739;DHT22;37815;52.692;6.226;2023-08-06T14:33:57;20.20;97.50
51739;DHT22;37815;52.692;6.226;2023-08-06T14:38:57;20.10;97.50
51739;DHT22;37815;52.692;6.226;2023-08-06T14:43:58;20.20;97.50
51739;DHT22;37815;52.692;6.226;2023-08-06T14:48:58;20.10;97.50
51739;DHT22;37815;52.692;6.226;2023-08-06T14:53:59;20.20;97.50
51739;DHT22;37815;52.692;6.226;2023-08-06T14:59:01;20.20;97.50
51739;DHT22;37815;52.692;6.226;2023-08-06T15:04:02;20.20;97.60
51739;DHT22;37815;52.692;6.226;2023-08-06T15:09:02;20.20;97.50
51739;DHT22;37815;52.692;6.226;2023-08-06T15:14:03;20.20;97.50
51739;DHT22;37815;52.692;6.226;2023-08-06T15:19:07;20.10;97.40
51739;DHT22;37815;52.692;6.226;2023-08-06T15:24:08;20.10;97.40
51739;DHT22;37815;52.692;6.226;2023-08-06T15:29:08;20.10;97.40
51739;DHT22;37815;52.692;6.226;2023-08-06T15:34:10;20.10;97.40
51739;DHT22;37815;52.692;6.226;2023-08-06T15:39:10;20.10;97.50
51739;DHT22;37815;52.692;6.226;2023-08-06T15:44:11;20.10;97.40
51739;DHT22;37815;52.692;6.226;2023-08-06T15:49:12;20.10;97.40
51739;DHT22;37815;52.692;6.226;2023-08-06T15:54:13;20.10;97.40
51739;DHT22;37815;52.692;6.226;2023-08-06T15:59:29;20.10;97.50
51739;DHT22;37815;52.692;6.226;2023-08-06T16:04:30;20.00;97.50
51739;DHT22;37815;52.692;6.226;2023-08-06T16:09:31;20.00;97.50
51739;DHT22;37815;52.692;6.226;2023-08-06T16:14:36;20.00;97.80
51739;DHT22;37815;52.692;6.226;2023-08-06T16:19:37;20.00;97.70
51739;DHT22;37815;52.692;6.226;2023-08-06T16:24:38;20.00;97.80
51739;DHT22;37815;52.692;6.226;2023-08-06T16:29:38;20.00;97.70
51739;DHT22;37815;52.692;6.226;2023-08-06T16:34:39;20.00;97.70
51739;DHT22;37815;52.692;6.226;2023-08-06T16:39:40;20.00;97.70
51739;DHT22;37815;52.692;6.226;2023-08-06T16:44:40;20.00;97.70
51739;DHT22;37815;52.692;6.226;2023-08-06T16:49:42;20.00;97.80
51739;DHT22;37815;52.692;6.226;2023-08-06T16:54:42;19.90;97.80
51739;DHT22;37815;52.692;6.226;2023-08-06T16:59:43;20.00;97.70
51739;DHT22;37815;52.692;6.226;2023-08-06T17:04:45;19.90;97.70
51739;DHT22;37815;52.692;6.226;2023-08-06T17:09:45;19.90;97.70
51739;DHT22;37815;52.692;6.226;2023-08-06T17:14:46;19.90;97.70
51739;DHT22;37815;52.692;6.226;2023-08-06T17:19:47;19.90;97.60
51739;DHT22;37815;52.692;6.226;2023-08-06T17:24:47;20.00;97.60
51739;DHT22;37815;52.692;6.226;2023-08-06T17:29:48;20.00;97.60
51739;DHT22;37815;52.692;6.226;2023-08-06T17:34:49;19.90;97.60
51739;DHT22;37815;52.692;6.226;2023-08-06T17:39:49;19.80;97.70
51739;DHT22;37815;52.692;6.226;2023-08-06T17:44:50;19.80;97.70
51739;DHT22;37815;52.692;6.226;2023-08-06T17:49:50;19.90;97.60
51739;DHT22;37815;52.692;6.226;2023-08-06T17:54:51;19.90;97.50
51739;DHT22;37815;52.692;6.226;2023-08-06T17:59:52;19.90;97.40
51739;DHT22;37815;52.692;6.226;2023-08-06T18:04:52;19.90;97.40
51739;DHT22;37815;52.692;6.226;2023-08-06T18:09:53;19.90;97.40
51739;DHT22;37815;52.692;6.226;2023-08-06T18:14:53;19.80;97.80
51739;DHT22;37815;52.692;6.226;2023-08-06T18:19:55;19.80;97.90
51739;DHT22;37815;52.692;6.226;2023-08-06T18:24:55;19.70;97.90
51739;DHT22;37815;52.692;6.226;2023-08-06T18:29:57;19.80;97.90
51739;DHT22;37815;52.692;6.226;2023-08-06T18:34:58;19.80;97.90
51739;DHT22;37815;52.692;6.226;2023-08-06T18:39:59;19.80;97.80
51739;DHT22;37815;52.692;6.226;2023-08-06T18:45:02;19.80;97.70
51739;DHT22;37815;52.692;6.226;2023-08-06T18:50:03;19.80;97.70
51739;DHT22;37815;52.692;6.226;2023-08-06T18:55:04;19.80;97.70
51739;DHT22;37815;52.692;6.226;2023-08-06T19:00:05;19.70;97.60
51739;DHT22;37815;52.692;6.226;2023-08-06T19:05:07;19.70;97.50
51739;DHT22;37815;52.692;6.226;2023-08-06T19:10:08;19.70;97.50
51739;DHT22;37815;52.692;6.226;2023-08-06T19:15:09;19.70;97.50
51739;DHT22;37815;52.692;6.226;2023-08-06T19:20:10;19.70;97.50
51739;DHT22;37815;52.692;6.226;2023-08-06T19:25:11;19.70;97.40
51739;DHT22;37815;52.692;6.226;2023-08-06T19:30:12;19.60;97.40
51739;DHT22;37815;52.692;6.226;2023-08-06T19:35:13;19.60;97.40
51739;DHT22;37815;52.692;6.226;2023-08-06T19:40:14;19.60;97.40
51739;DHT22;37815;52.692;6.226;2023-08-06T19:45:16;19.60;97.40
51739;DHT22;37815;52.692;6.226;2023-08-06T19:50:17;19.60;97.40
51739;DHT22;37815;52.692;6.226;2023-08-06T19:55:17;19.60;97.40
51739;DHT22;37815;52.692;6.226;2023-08-06T20:00:18;19.60;97.70
51739;DHT22;37815;52.692;6.226;2023-08-06T20:05:19;19.60;97.40
51739;DHT22;37815;52.692;6.226;2023-08-06T20:10:19;19.60;97.40
51739;DHT22;37815;52.692;6.226;2023-08-06T20:15:20;19.50;97.40
51739;DHT22;37815;52.692;6.226;2023-08-06T20:20:20;19.60;97.40
51739;DHT22;37815;52.692;6.226;2023-08-06T20:25:21;19.50;97.40
51739;DHT22;37815;52.692;6.226;2023-08-06T20:30:22;19.50;97.40
51739;DHT22;37815;52.692;6.226;2023-08-06T20:35:22;19.50;97.40
51739;DHT22;37815;52.692;6.226;2023-08-06T20:40:23;19.50;97.40
51739;DHT22;37815;52.692;6.226;2023-08-06T20:45:24;19.50;97.40
51739;DHT22;37815;52.692;6.226;2023-08-06T20:50:24;19.50;97.40
51739;DHT22;37815;52.692;6.226;2023-08-06T20:55:26;19.40;97.40
51739;DHT22;37815;52.692;6.226;2023-08-06T21:00:27;19.40;97.30
51739;DHT22;37815;52.692;6.226;2023-08-06T21:05:27;19.40;97.30
51739;DHT22;37815;52.692;6.226;2023-08-06T21:10:29;19.40;97.30
51739;DHT22;37815;52.692;6.226;2023-08-06T21:15:30;19.40;97.30
51739;DHT22;37815;52.692;6.226;2023-08-06T21:20:30;19.40;97.30
51739;DHT22;37815;52.692;6.226;2023-08-06T21:25:31;19.40;97.30
51739;DHT22;37815;52.692;6.226;2023-08-06T21:30:32;19.30;97.20
51739;DHT22;37815;52.692;6.226;2023-08-06T21:35:32;19.40;97.50
51739;DHT22;37815;52.692;6.226;2023-08-06T21:40:34;19.30;97.20
51739;DHT22;37815;52.692;6.226;2023-08-06T21:45:35;19.30;97.20
51739;DHT22;37815;52.692;6.226;2023-08-06T21:50:35;19.30;97.20
51739;DHT22;37815;52.692;6.226;2023-08-06T21:55:36;19.30;97.20
51739;DHT22;37815;52.692;6.226;2023-08-06T22:00:37;19.30;97.20
51739;DHT22;37815;52.692;6.226;2023-08-06T22:05:37;19.30;97.20
51739;DHT22;37815;52.692;6.226;2023-08-06T22:10:38;19.30;97.20
51739;DHT22;37815;52.692;6.226;2023-08-06T22:15:38;19.20;97.20
51739;DHT22;37815;52.692;6.226;2023-08-06T22:20:39;19.20;97.20
51739;DHT22;37815;52.692;6.226;2023-08-06T22:25:40;19.20;97.20
51739;DHT22;37815;52.692;6.226;2023-08-06T22:30:40;19.30;97.20
51739;DHT22;37815;52.692;6.226;2023-08-06T22:35:41;19.20;97.20
51739;DHT22;37815;52.692;6.226;2023-08-06T22:40:42;19.20;97.20
51739;DHT22;37815;52.692;6.226;2023-08-06T22:45:42;19.20;97.10
51739;DHT22;37815;52.692;6.226;2023-08-06T22:50:44;19.20;97.10
51739;DHT22;37815;52.692;6.226;2023-08-06T22:55:45;19.20;97.10
51739;DHT22;37815;52.692;6.226;2023-08-06T23:00:47;19.20;97.10
51739;DHT22;37815;52.692;6.226;2023-08-06T23:05:47;19.20;97.10
51739;DHT22;37815;52.692;6.226;2023-08-06T23:10:48;19.20;97.10
51739;DHT22;37815;52.692;6.226;2023-08-06T23:15:49;19.10;97.10
51739;DHT22;37815;52.692;6.226;2023-08-06T23:20:49;19.10;97.10
51739;DHT22;37815;52.692;6.226;2023-08-06T23:25:50;19.10;97.10
51739;DHT22;37815;52.692;6.226;2023-08-06T23:30:50;19.20;97.40
51739;DHT22;37815;52.692;6.226;2023-08-06T23:35:52;19.10;97.10
51739;DHT22;37815;52.692;6.226;2023-08-06T23:40:53;19.10;97.10
51739;DHT22;37815;52.692;6.226;2023-08-06T23:45:53;19.10;97.10
51739;DHT22;37815;52.692;6.226;2023-08-06T23:50:56;19.10;97.10
51739;DHT22;37815;52.692;6.226;2023-08-06T23:55:56;19.10;97.10
